sensor_id;sensor_type;location;lat;lon;timestamp;temperature;humidity
11812;DHT22;5963;50.184;9.162;2022-09-12T00:01:23;13.00;99.90
11812;DHT22;5963;50.184;9.162;2022-09-12T00:03:52;12.90;99.90
11812;DHT22;5963;50.184;9.162;2022-09-12T00:06:22;13.00;99.90
11812;DHT22;5963;50.184;9.162;2022-09-12T00:08:53;13.00;99.90
11812;DHT22;5963;50.184;9.162;2022-09-12T00:11:21;13.00;99.90
11812;DHT22;5963;50.184;9.162;2022-09-12T00:13:54;13.10;99.90
11812;DHT22;5963;50.184;9.162;2022-09-12T00:16:24;13.00;99.90
11812;DHT22;5963;50.184;9.162;2022-09-12T00:18:53;12.90;99.90
11812;DHT22;5963;50.184;9.162;2022-09-12T00:21:22;12.90;99.90
11812;DHT22;5963;50.184;9.162;2022-09-12T00:23:50;12.80;99.90
11812;DHT22;5963;50.184;9.162;2022-09-12T00:26:19;12.80;99.90
11812;DHT22;5963;50.184;9.162;2022-09-12T00:28:48;12.80;99.90
11812;DHT22;5963;50.184;9.162;2022-09-12T00:31:20;12.70;99.90
11812;DHT22;5963;50.184;9.162;2022-09-12T00:33:50;12.70;99.90
11812;DHT22;5963;50.184;9.162;2022-09-12T00:36:21;12.80;99.90
11812;DHT22;5963;50.184;9.162;2022-09-12T00:38:52;12.80;99.90
11812;DHT22;5963;50.184;9.162;2022-09-12T00:41:22;12.80;99.90
11812;DHT22;5963;50.184;9.162;2022-09-12T00:43:52;12.80;99.90
11812;DHT22;5963;50.184;9.162;2022-09-12T00:46:34;12.80;99.90
11812;DHT22;5963;50.184;9.162;2022-09-12T00:49:16;12.60;99.90
11812;DHT22;5963;50.184;9.162;2022-09-12T00:51:47;12.60;99.90
11812;DHT22;5963;50.184;9.162;2022-09-12T00:54:21;12.50;99.90
11812;DHT22;5963;50.184;9.162;2022-09-12T00:56:52;12.40;99.90
11812;DHT22;5963;50.184;9.162;2022-09-12T00:59:24;12.40;99.90
11812;DHT22;5963;50.184;9.162;2022-09-12T01:01:55;12.50;99.90
11812;DHT22;5963;50.184;9.162;2022-09-12T01:04:25;12.50;99.90
11812;DHT22;5963;50.184;9.162;2022-09-12T01:06:55;12.60;99.90
11812;DHT22;5963;50.184;9.162;2022-09-12T01:09:24;12.50;99.90
11812;DHT22;5963;50.184;9.162;2022-09-12T01:11:52;12.50;99.90
11812;DHT22;5963;50.184;9.162;2022-09-12T01:14:21;12.40;99.90
11812;DHT22;5963;50.184;9.162;2022-09-12T01:16:50;12.40;99.90
11812;DHT22;5963;50.184;9.162;2022-09-12T01:19:56;12.50;99.90
11812;DHT22;5963;50.184;9.162;2022-09-12T01:22:59;12.50;99.90
11812;DHT22;5963;50.184;9.162;2022-09-12T01:25:37;12.50;99.90
11812;DHT22;5963;50.184;9.162;2022-09-12T01:28:28;12.60;99.90
11812;DHT22;5963;50.184;9.162;2022-09-12T01:31:04;12.50;99.90
11812;DHT22;5963;50.184;9.162;2022-09-12T01:33:46;12.40;99.90
11812;DHT22;5963;50.184;9.162;2022-09-12T01:36:35;12.40;99.90
11812;DHT22;5963;50.184;9.162;2022-09-12T01:39:07;12.30;99.90
11812;DHT22;5963;50.184;9.162;2022-09-12T01:41:46;12.20;99.90
11812;DHT22;5963;50.184;9.162;2022-09-12T01:44:24;12.10;99.90
11812;DHT22;5963;50.184;9.162;2022-09-12T01:47:02;12.10;99.90
11812;DHT22;5963;50.184;9.162;2022-09-12T01:49:38;12.00;99.90
11812;DHT22;5963;50.184;9.162;2022-09-12T01:52:11;12.00;99.90
11812;DHT22;5963;50.184;9.162;2022-09-12T01:54:44;12.10;99.90
11812;DHT22;5963;50.184;9.162;2022-09-12T01:57:19;12.10;99.90
11812;DHT22;5963;50.184;9.162;2022-09-12T01:59:54;12.10;99.90
11812;DHT22;5963;50.184;9.162;2022-09-12T02:02:28;12.10;99.90
11812;DHT22;5963;50.184;9.162;2022-09-12T02:05:01;12.00;99.90
11812;DHT22;5963;50.184;9.162;2022-09-12T02:07:36;12.10;99.90
11812;DHT22;5963;50.184;9.162;2022-09-12T02:10:09;12.00;99.90
11812;DHT22;5963;50.184;9.162;2022-09-12T02:12:43;12.10;99.90
11812;DHT22;5963;50.184;9.162;2022-09-12T02:15:15;12.10;99.90
11812;DHT22;5963;50.184;9.162;2022-09-12T02:17:48;12.10;99.90
11812;DHT22;5963;50.184;9.162;2022-09-12T02:20:19;12.10;99.90
11812;DHT22;5963;50.184;9.162;2022-09-12T02:23:11;12.10;99.90
11812;DHT22;5963;50.184;9.162;2022-09-12T02:25:43;12.00;99.90
11812;DHT22;5963;50.184;9.162;2022-09-12T02:28:15;11.90;99.90
11812;DHT22;5963;50.184;9.162;2022-09-12T02:30:58;11.90;99.90
11812;DHT22;5963;50.184;9.162;2022-09-12T02:33:34;11.80;99.90
11812;DHT22;5963;50.184;9.162;2022-09-12T02:36:09;11.80;99.90
11812;DHT22;5963;50.184;9.162;2022-09-12T02:38:43;11.80;99.90
11812;DHT22;5963;50.184;9.162;2022-09-12T02:41:16;11.80;99.90
11812;DHT22;5963;50.184;9.162;2022-09-12T02:43:45;11.80;99.90
11812;DHT22;5963;50.184;9.162;2022-09-12T02:46:19;11.70;99.90
11812;DHT22;5963;50.184;9.162;2022-09-12T02:48:49;11.70;99.90
11812;DHT22;5963;50.184;9.162;2022-09-12T02:51:18;11.60;99.90
11812;DHT22;5963;50.184;9.162;2022-09-12T02:53:49;11.60;99.90
11812;DHT22;5963;50.184;9.162;2022-09-12T02:56:24;11.50;99.90
11812;DHT22;5963;50.184;9.162;2022-09-12T02:58:54;11.50;99.90
11812;DHT22;5963;50.184;9.162;2022-09-12T03:01:37;11.60;99.90
11812;DHT22;5963;50.184;9.162;2022-09-12T03:04:32;11.50;99.90
11812;DHT22;5963;50.184;9.162;2022-09-12T03:07:10;11.70;99.90
11812;DHT22;5963;50.184;9.162;2022-09-12T03:09:44;11.70;99.90
11812;DHT22;5963;50.184;9.162;2022-09-12T03:12:25;11.70;99.90
11812;DHT22;5963;50.184;9.162;2022-09-12T03:15:13;11.70;99.90
11812;DHT22;5963;50.184;9.162;2022-09-12T03:17:55;11.70;99.90
11812;DHT22;5963;50.184;9.162;2022-09-12T03:20:36;11.70;99.90
11812;DHT22;5963;50.184;9.162;2022-09-12T03:23:18;11.60;99.90
11812;DHT22;5963;50.184;9.162;2022-09-12T03:25:49;11.60;99.90
11812;DHT22;5963;50.184;9.162;2022-09-12T03:28:21;11.60;99.90
11812;DHT22;5963;50.184;9.162;2022-09-12T03:30:50;11.70;99.90
11812;DHT22;5963;50.184;9.162;2022-09-12T03:33:21;11.70;99.90
11812;DHT22;5963;50.184;9.162;2022-09-12T03:35:52;11.70;99.90
11812;DHT22;5963;50.184;9.162;2022-09-12T03:38:20;11.60;99.90
11812;DHT22;5963;50.184;9.162;2022-09-12T03:40:49;11.50;99.90
11812;DHT22;5963;50.184;9.162;2022-09-12T03:43:20;11.50;99.90
11812;DHT22;5963;50.184;9.162;2022-09-12T03:45:49;11.50;99.90
11812;DHT22;5963;50.184;9.162;2022-09-12T03:48:20;11.60;99.90
11812;DHT22;5963;50.184;9.162;2022-09-12T03:50:48;11.70;99.90
11812;DHT22;5963;50.184;9.162;2022-09-12T03:53:20;11.60;99.90
11812;DHT22;5963;50.184;9.162;2022-09-12T03:55:48;11.50;99.90
11812;DHT22;5963;50.184;9.162;2022-09-12T03:58:16;11.40;99.90
11812;DHT22;5963;50.184;9.162;2022-09-12T04:00:44;11.40;99.90
11812;DHT22;5963;50.184;9.162;2022-09-12T04:03:12;11.30;99.90
11812;DHT22;5963;50.184;9.162;2022-09-12T04:05:40;11.40;99.90
11812;DHT22;5963;50.184;9.162;2022-09-12T04:08:08;11.40;99.90
11812;DHT22;5963;50.184;9.162;2022-09-12T04:10:38;11.40;99.90
11812;DHT22;5963;50.184;9.162;2022-09-12T04:13:06;11.30;99.90
11812;DHT22;5963;50.184;9.162;2022-09-12T04:15:34;11.30;99.90
11812;DHT22;5963;50.184;9.162;2022-09-12T04:18:03;11.20;99.90
11812;DHT22;5963;50.184;9.162;2022-09-12T04:20:32;11.20;99.90
11812;DHT22;5963;50.184;9.162;2022-09-12T04:23:00;11.20;99.90
11812;DHT22;5963;50.184;9.162;2022-09-12T04:25:28;11.20;99.90
11812;DHT22;5963;50.184;9.162;2022-09-12T04:27:58;11.10;99.90
11812;DHT22;5963;50.184;9.162;2022-09-12T04:30:26;11.00;99.90
11812;DHT22;5963;50.184;9.162;2022-09-12T04:32:55;11.00;99.90
11812;DHT22;5963;50.184;9.162;2022-09-12T04:35:23;11.00;99.90
11812;DHT22;5963;50.184;9.162;2022-09-12T04:37:51;11.00;99.90
11812;DHT22;5963;50.184;9.162;2022-09-12T04:40:19;10.90;99.90
11812;DHT22;5963;50.184;9.162;2022-09-12T04:42:47;10.90;99.90
11812;DHT22;5963;50.184;9.162;2022-09-12T04:45:17;10.90;99.90
11812;DHT22;5963;50.184;9.162;2022-09-12T04:47:45;10.90;99.90
11812;DHT22;5963;50.184;9.162;2022-09-12T04:50:13;10.80;99.90
11812;DHT22;5963;50.184;9.162;2022-09-12T04:52:41;10.70;99.90
11812;DHT22;5963;50.184;9.162;2022-09-12T04:55:09;10.70;99.90
11812;DHT22;5963;50.184;9.162;2022-09-12T04:57:38;10.70;99.90
11812;DHT22;5963;50.184;9.162;2022-09-12T05:00:07;10.70;99.90
11812;DHT22;5963;50.184;9.162;2022-09-12T05:02:38;10.70;99.90
11812;DHT22;5963;50.184;9.162;2022-09-12T05:05:07;10.70;99.90
11812;DHT22;5963;50.184;9.162;2022-09-12T05:07:37;10.70;99.90
11812;DHT22;5963;50.184;9.162;2022-09-12T05:10:06;10.80;99.90
11812;DHT22;5963;50.184;9.162;2022-09-12T05:12:35;10.80;99.90
11812;DHT22;5963;50.184;9.162;2022-09-12T05:15:04;10.80;99.90
11812;DHT22;5963;50.184;9.162;2022-09-12T05:17:32;10.80;99.90
11812;DHT22;5963;50.184;9.162;2022-09-12T05:20:03;10.90;99.90
11812;DHT22;5963;50.184;9.162;2022-09-12T05:22:31;10.90;99.90
11812;DHT22;5963;50.184;9.162;2022-09-12T05:24:59;10.90;99.90
11812;DHT22;5963;50.184;9.162;2022-09-12T05:27:27;10.90;99.90
11812;DHT22;5963;50.184;9.162;2022-09-12T05:29:55;11.00;99.90
11812;DHT22;5963;50.184;9.162;2022-09-12T05:32:23;11.00;99.90
11812;DHT22;5963;50.184;9.162;2022-09-12T05:34:51;10.90;99.90
11812;DHT22;5963;50.184;9.162;2022-09-12T05:37:21;10.90;99.90
11812;DHT22;5963;50.184;9.162;2022-09-12T05:39:49;11.00;99.90
11812;DHT22;5963;50.184;9.162;2022-09-12T05:42:28;11.00;99.90
11812;DHT22;5963;50.184;9.162;2022-09-12T05:44:57;11.10;99.90
11812;DHT22;5963;50.184;9.162;2022-09-12T05:47:25;11.10;99.90
11812;DHT22;5963;50.184;9.162;2022-09-12T05:49:53;11.20;99.90
11812;DHT22;5963;50.184;9.162;2022-09-12T05:52:23;11.10;99.90
11812;DHT22;5963;50.184;9.162;2022-09-12T05:54:51;11.10;99.90
11812;DHT22;5963;50.184;9.162;2022-09-12T05:57:19;11.20;99.90
11812;DHT22;5963;50.184;9.162;2022-09-12T05:59:47;11.20;99.90
11812;DHT22;5963;50.184;9.162;2022-09-12T06:02:16;11.30;99.90
11812;DHT22;5963;50.184;9.162;2022-09-12T06:04:44;11.30;99.90
11812;DHT22;5963;50.184;9.162;2022-09-12T06:07:13;11.40;99.90
11812;DHT22;5963;50.184;9.162;2022-09-12T06:09:44;11.50;99.90
11812;DHT22;5963;50.184;9.162;2022-09-12T06:12:12;11.50;99.90
11812;DHT22;5963;50.184;9.162;2022-09-12T06:14:40;11.60;99.90
11812;DHT22;5963;50.184;9.162;2022-09-12T06:17:10;11.80;99.90
11812;DHT22;5963;50.184;9.162;2022-09-12T06:19:38;11.80;99.90
11812;DHT22;5963;50.184;9.162;2022-09-12T06:22:06;11.90;99.90
11812;DHT22;5963;50.184;9.162;2022-09-12T06:24:35;12.10;99.90
11812;DHT22;5963;50.184;9.162;2022-09-12T06:27:05;12.10;99.90
11812;DHT22;5963;50.184;9.162;2022-09-12T06:29:33;12.10;99.90
11812;DHT22;5963;50.184;9.162;2022-09-12T06:32:01;12.20;99.90
11812;DHT22;5963;50.184;9.162;2022-09-12T06:34:30;12.30;99.90
11812;DHT22;5963;50.184;9.162;2022-09-12T06:36:59;12.30;99.90
11812;DHT22;5963;50.184;9.162;2022-09-12T06:39:29;12.60;99.90
11812;DHT22;5963;50.184;9.162;2022-09-12T06:41:58;12.60;99.90
11812;DHT22;5963;50.184;9.162;2022-09-12T06:44:28;12.50;99.90
11812;DHT22;5963;50.184;9.162;2022-09-12T06:46:57;12.50;99.90
11812;DHT22;5963;50.184;9.162;2022-09-12T06:49:25;12.60;99.90
11812;DHT22;5963;50.184;9.162;2022-09-12T06:51:53;12.70;99.90
11812;DHT22;5963;50.184;9.162;2022-09-12T06:54:22;12.90;99.90
11812;DHT22;5963;50.184;9.162;2022-09-12T06:56:52;13.10;99.90
11812;DHT22;5963;50.184;9.162;2022-09-12T06:59:22;13.00;99.90
11812;DHT22;5963;50.184;9.162;2022-09-12T07:01:52;13.30;99.90
11812;DHT22;5963;50.184;9.162;2022-09-12T07:04:20;13.30;99.90
11812;DHT22;5963;50.184;9.162;2022-09-12T07:06:50;13.30;99.90
11812;DHT22;5963;50.184;9.162;2022-09-12T07:09:18;13.40;99.90
11812;DHT22;5963;50.184;9.162;2022-09-12T07:11:46;13.70;99.90
11812;DHT22;5963;50.184;9.162;2022-09-12T07:14:14;13.80;99.90
11812;DHT22;5963;50.184;9.162;2022-09-12T07:16:46;13.90;99.90
11812;DHT22;5963;50.184;9.162;2022-09-12T07:19:15;13.90;99.90
11812;DHT22;5963;50.184;9.162;2022-09-12T07:21:43;14.00;99.90
11812;DHT22;5963;50.184;9.162;2022-09-12T07:24:11;14.10;99.90
11812;DHT22;5963;50.184;9.162;2022-09-12T07:26:40;14.30;99.90
11812;DHT22;5963;50.184;9.162;2022-09-12T07:29:13;14.40;99.90
11812;DHT22;5963;50.184;9.162;2022-09-12T07:32:02;14.70;99.90
11812;DHT22;5963;50.184;9.162;2022-09-12T07:34:34;14.70;99.90
11812;DHT22;5963;50.184;9.162;2022-09-12T07:37:02;14.70;99.90
11812;DHT22;5963;50.184;9.162;2022-09-12T07:39:30;15.00;99.90
11812;DHT22;5963;50.184;9.162;2022-09-12T07:41:59;15.30;99.90
11812;DHT22;5963;50.184;9.162;2022-09-12T07:44:31;15.40;99.90
11812;DHT22;5963;50.184;9.162;2022-09-12T07:47:00;15.60;99.90
11812;DHT22;5963;50.184;9.162;2022-09-12T07:49:28;15.70;99.90
11812;DHT22;5963;50.184;9.162;2022-09-12T07:52:00;16.00;99.90
11812;DHT22;5963;50.184;9.162;2022-09-12T07:54:30;16.20;99.90
11812;DHT22;5963;50.184;9.162;2022-09-12T07:56:59;16.30;99.90
11812;DHT22;5963;50.184;9.162;2022-09-12T07:59:28;16.50;99.90
11812;DHT22;5963;50.184;9.162;2022-09-12T08:02:16;16.70;99.90
11812;DHT22;5963;50.184;9.162;2022-09-12T08:04:46;16.90;99.90
11812;DHT22;5963;50.184;9.162;2022-09-12T08:07:16;16.80;99.90
11812;DHT22;5963;50.184;9.162;2022-09-12T08:09:45;17.00;99.90
11812;DHT22;5963;50.184;9.162;2022-09-12T08:12:14;17.20;99.90
11812;DHT22;5963;50.184;9.162;2022-09-12T08:14:43;17.30;99.90
11812;DHT22;5963;50.184;9.162;2022-09-12T08:17:12;17.30;99.90
11812;DHT22;5963;50.184;9.162;2022-09-12T08:19:40;17.50;99.90
11812;DHT22;5963;50.184;9.162;2022-09-12T08:22:09;17.70;99.90
11812;DHT22;5963;50.184;9.162;2022-09-12T08:24:39;17.80;99.90
11812;DHT22;5963;50.184;9.162;2022-09-12T08:27:07;18.10;99.90
11812;DHT22;5963;50.184;9.162;2022-09-12T08:29:36;18.20;99.90
11812;DHT22;5963;50.184;9.162;2022-09-12T08:32:04;18.40;99.90
11812;DHT22;5963;50.184;9.162;2022-09-12T08:34:32;18.60;99.90
11812;DHT22;5963;50.184;9.162;2022-09-12T08:37:00;18.70;99.90
11812;DHT22;5963;50.184;9.162;2022-09-12T08:39:30;19.00;99.90
11812;DHT22;5963;50.184;9.162;2022-09-12T08:42:02;19.20;99.90
11812;DHT22;5963;50.184;9.162;2022-09-12T08:44:45;19.20;99.90
11812;DHT22;5963;50.184;9.162;2022-09-12T08:47:24;19.30;99.90
11812;DHT22;5963;50.184;9.162;2022-09-12T08:50:03;19.60;99.90
11812;DHT22;5963;50.184;9.162;2022-09-12T08:52:37;19.90;99.90
11812;DHT22;5963;50.184;9.162;2022-09-12T08:55:18;20.00;99.90
11812;DHT22;5963;50.184;9.162;2022-09-12T08:57:56;19.80;99.90
11812;DHT22;5963;50.184;9.162;2022-09-12T09:00:32;20.10;99.90
11812;DHT22;5963;50.184;9.162;2022-09-12T09:03:22;20.40;99.90
11812;DHT22;5963;50.184;9.162;2022-09-12T09:06:01;20.60;99.90
11812;DHT22;5963;50.184;9.162;2022-09-12T09:08:48;20.80;99.90
11812;DHT22;5963;50.184;9.162;2022-09-12T09:11:33;21.10;99.90
11812;DHT22;5963;50.184;9.162;2022-09-12T09:14:18;21.20;99.90
11812;DHT22;5963;50.184;9.162;2022-09-12T09:17:10;21.30;99.90
11812;DHT22;5963;50.184;9.162;2022-09-12T09:19:42;21.50;99.90
11812;DHT22;5963;50.184;9.162;2022-09-12T09:22:27;21.60;99.90
11812;DHT22;5963;50.184;9.162;2022-09-12T09:25:01;21.70;99.90
11812;DHT22;5963;50.184;9.162;2022-09-12T09:27:35;21.90;99.90
11812;DHT22;5963;50.184;9.162;2022-09-12T09:30:13;22.10;99.90
11812;DHT22;5963;50.184;9.162;2022-09-12T09:32:43;22.20;99.90
11812;DHT22;5963;50.184;9.162;2022-09-12T09:35:17;22.00;99.90
11812;DHT22;5963;50.184;9.162;2022-09-12T09:37:57;22.30;99.90
11812;DHT22;5963;50.184;9.162;2022-09-12T09:40:34;22.60;99.90
11812;DHT22;5963;50.184;9.162;2022-09-12T09:43:12;22.90;99.90
11812;DHT22;5963;50.184;9.162;2022-09-12T09:45:45;23.00;99.90
11812;DHT22;5963;50.184;9.162;2022-09-12T09:48:17;23.00;99.90
11812;DHT22;5963;50.184;9.162;2022-09-12T09:50:47;22.60;99.90
11812;DHT22;5963;50.184;9.162;2022-09-12T09:53:28;22.70;99.90
11812;DHT22;5963;50.184;9.162;2022-09-12T09:56:04;23.00;99.90
11812;DHT22;5963;50.184;9.162;2022-09-12T09:58:38;22.80;99.90
11812;DHT22;5963;50.184;9.162;2022-09-12T10:01:15;22.40;99.90
11812;DHT22;5963;50.184;9.162;2022-09-12T10:03:48;22.70;99.90
11812;DHT22;5963;50.184;9.162;2022-09-12T10:06:28;23.00;99.90
11812;DHT22;5963;50.184;9.162;2022-09-12T10:09:09;22.90;99.90
11812;DHT22;5963;50.184;9.162;2022-09-12T10:11:45;23.20;99.90
11812;DHT22;5963;50.184;9.162;2022-09-12T10:14:35;23.40;99.90
11812;DHT22;5963;50.184;9.162;2022-09-12T10:17:24;23.30;99.90
11812;DHT22;5963;50.184;9.162;2022-09-12T10:20:00;23.40;99.90
11812;DHT22;5963;50.184;9.162;2022-09-12T10:22:48;23.30;99.90
11812;DHT22;5963;50.184;9.162;2022-09-12T10:25:18;23.30;99.90
11812;DHT22;5963;50.184;9.162;2022-09-12T10:27:52;23.40;99.90
11812;DHT22;5963;50.184;9.162;2022-09-12T10:30:23;23.70;99.90
11812;DHT22;5963;50.184;9.162;2022-09-12T10:33:04;23.80;99.90
11812;DHT22;5963;50.184;9.162;2022-09-12T10:35:43;23.90;99.90
11812;DHT22;5963;50.184;9.162;2022-09-12T10:38:16;23.20;99.90
11812;DHT22;5963;50.184;9.162;2022-09-12T10:40:55;23.60;99.90
11812;DHT22;5963;50.184;9.162;2022-09-12T10:43:27;24.00;99.90
11812;DHT22;5963;50.184;9.162;2022-09-12T10:45:57;24.20;99.90
11812;DHT22;5963;50.184;9.162;2022-09-12T10:48:31;24.10;99.90
11812;DHT22;5963;50.184;9.162;2022-09-12T10:51:00;24.10;99.90
11812;DHT22;5963;50.184;9.162;2022-09-12T10:53:31;23.80;99.90
11812;DHT22;5963;50.184;9.162;2022-09-12T10:56:10;24.20;99.90
11812;DHT22;5963;50.184;9.162;2022-09-12T10:58:58;23.60;99.90
11812;DHT22;5963;50.184;9.162;2022-09-12T11:01:37;23.40;99.90
11812;DHT22;5963;50.184;9.162;2022-09-12T11:04:23;23.50;99.90
11812;DHT22;5963;50.184;9.162;2022-09-12T11:07:30;23.60;99.90
11812;DHT22;5963;50.184;9.162;2022-09-12T11:10:08;24.00;99.90
11812;DHT22;5963;50.184;9.162;2022-09-12T11:12:47;23.60;99.90
11812;DHT22;5963;50.184;9.162;2022-09-12T11:15:49;24.00;99.90
11812;DHT22;5963;50.184;9.162;2022-09-12T11:18:30;24.40;99.90
11812;DHT22;5963;50.184;9.162;2022-09-12T11:21:21;24.40;99.90
11812;DHT22;5963;50.184;9.162;2022-09-12T11:24:16;24.40;99.90
11812;DHT22;5963;50.184;9.162;2022-09-12T11:27:11;24.40;99.90
11812;DHT22;5963;50.184;9.162;2022-09-12T11:29:48;24.40;99.90
11812;DHT22;5963;50.184;9.162;2022-09-12T11:33:01;24.30;99.90
11812;DHT22;5963;50.184;9.162;2022-09-12T11:35:33;24.10;99.90
11812;DHT22;5963;50.184;9.162;2022-09-12T11:38:25;24.40;99.90
11812;DHT22;5963;50.184;9.162;2022-09-12T11:41:02;24.60;99.90
11812;DHT22;5963;50.184;9.162;2022-09-12T11:43:36;24.60;99.90
11812;DHT22;5963;50.184;9.162;2022-09-12T11:46:10;24.00;99.90
11812;DHT22;5963;50.184;9.162;2022-09-12T11:48:46;23.50;99.90
11812;DHT22;5963;50.184;9.162;2022-09-12T11:51:17;23.20;99.90
11812;DHT22;5963;50.184;9.162;2022-09-12T11:53:57;23.30;99.90
11812;DHT22;5963;50.184;9.162;2022-09-12T11:56:27;23.50;99.90
11812;DHT22;5963;50.184;9.162;2022-09-12T11:59:00;23.70;99.90
11812;DHT22;5963;50.184;9.162;2022-09-12T12:01:31;24.00;99.90
11812;DHT22;5963;50.184;9.162;2022-09-12T12:04:11;24.20;99.90
11812;DHT22;5963;50.184;9.162;2022-09-12T12:06:48;24.60;99.90
11812;DHT22;5963;50.184;9.162;2022-09-12T12:09:19;25.10;99.90
11812;DHT22;5963;50.184;9.162;2022-09-12T12:11:51;25.40;99.90
11812;DHT22;5963;50.184;9.162;2022-09-12T12:14:22;25.50;99.90
11812;DHT22;5963;50.184;9.162;2022-09-12T12:16:51;25.50;99.90
11812;DHT22;5963;50.184;9.162;2022-09-12T12:19:32;25.40;99.90
11812;DHT22;5963;50.184;9.162;2022-09-12T12:22:06;25.40;99.90
11812;DHT22;5963;50.184;9.162;2022-09-12T12:25:01;25.70;99.90
11812;DHT22;5963;50.184;9.162;2022-09-12T12:27:51;24.90;99.90
11812;DHT22;5963;50.184;9.162;2022-09-12T12:36:42;24.60;99.90
11812;DHT22;5963;50.184;9.162;2022-09-12T12:46:02;24.70;99.90
11812;DHT22;5963;50.184;9.162;2022-09-12T12:48:42;24.90;99.90
11812;DHT22;5963;50.184;9.162;2022-09-12T12:51:30;24.40;99.90
11812;DHT22;5963;50.184;9.162;2022-09-12T12:54:01;24.60;99.90
11812;DHT22;5963;50.184;9.162;2022-09-12T12:56:38;24.40;99.90
11812;DHT22;5963;50.184;9.162;2022-09-12T12:59:16;25.00;99.90
11812;DHT22;5963;50.184;9.162;2022-09-12T13:01:50;25.40;99.90
11812;DHT22;5963;50.184;9.162;2022-09-12T13:04:25;25.80;99.90
11812;DHT22;5963;50.184;9.162;2022-09-12T13:06:57;25.90;99.90
11812;DHT22;5963;50.184;9.162;2022-09-12T13:09:36;25.20;99.90
11812;DHT22;5963;50.184;9.162;2022-09-12T13:12:07;24.60;99.90
11812;DHT22;5963;50.184;9.162;2022-09-12T13:14:49;24.70;99.90
11812;DHT22;5963;50.184;9.162;2022-09-12T13:17:24;25.00;99.90
11812;DHT22;5963;50.184;9.162;2022-09-12T13:20:01;25.20;99.90
11812;DHT22;5963;50.184;9.162;2022-09-12T13:22:51;25.30;99.90
11812;DHT22;5963;50.184;9.162;2022-09-12T13:25:28;24.90;99.90
11812;DHT22;5963;50.184;9.162;2022-09-12T13:28:14;25.10;99.90
11812;DHT22;5963;50.184;9.162;2022-09-12T13:30:46;25.30;99.90
11812;DHT22;5963;50.184;9.162;2022-09-12T13:33:20;25.10;99.90
11812;DHT22;5963;50.184;9.162;2022-09-12T13:39:07;25.70;99.90
11812;DHT22;5963;50.184;9.162;2022-09-12T13:42:01;25.50;99.90
11812;DHT22;5963;50.184;9.162;2022-09-12T13:44:39;25.10;99.90
11812;DHT22;5963;50.184;9.162;2022-09-12T13:47:11;24.80;99.90
11812;DHT22;5963;50.184;9.162;2022-09-12T13:49:42;25.10;99.90
11812;DHT22;5963;50.184;9.162;2022-09-12T13:52:17;24.90;99.90
11812;DHT22;5963;50.184;9.162;2022-09-12T13:54:49;25.00;99.90
11812;DHT22;5963;50.184;9.162;2022-09-12T13:57:30;25.00;99.90
11812;DHT22;5963;50.184;9.162;2022-09-12T14:00:02;24.90;99.90
11812;DHT22;5963;50.184;9.162;2022-09-12T14:02:34;25.10;99.90
11812;DHT22;5963;50.184;9.162;2022-09-12T14:05:18;24.50;99.90
11812;DHT22;5963;50.184;9.162;2022-09-12T14:07:51;24.50;99.90
11812;DHT22;5963;50.184;9.162;2022-09-12T14:10:25;24.70;99.90
11812;DHT22;5963;50.184;9.162;2022-09-12T14:12:54;24.50;99.90
11812;DHT22;5963;50.184;9.162;2022-09-12T14:15:25;24.20;99.90
11812;DHT22;5963;50.184;9.162;2022-09-12T14:17:55;24.20;99.90
11812;DHT22;5963;50.184;9.162;2022-09-12T14:20:30;24.30;99.90
11812;DHT22;5963;50.184;9.162;2022-09-12T14:23:03;24.20;99.90
11812;DHT22;5963;50.184;9.162;2022-09-12T14:25:36;24.70;99.90
11812;DHT22;5963;50.184;9.162;2022-09-12T14:28:11;24.80;99.90
11812;DHT22;5963;50.184;9.162;2022-09-12T14:30:40;24.60;99.90
11812;DHT22;5963;50.184;9.162;2022-09-12T14:33:19;24.50;99.90
11812;DHT22;5963;50.184;9.162;2022-09-12T14:35:51;24.40;99.90
11812;DHT22;5963;50.184;9.162;2022-09-12T14:38:33;24.20;99.90
11812;DHT22;5963;50.184;9.162;2022-09-12T14:41:06;24.00;99.90
11812;DHT22;5963;50.184;9.162;2022-09-12T14:43:37;23.90;99.90
11812;DHT22;5963;50.184;9.162;2022-09-12T14:46:15;24.00;99.90
11812;DHT22;5963;50.184;9.162;2022-09-12T14:48:47;24.40;99.90
11812;DHT22;5963;50.184;9.162;2022-09-12T14:51:22;24.30;99.90
11812;DHT22;5963;50.184;9.162;2022-09-12T14:53:52;24.10;99.90
11812;DHT22;5963;50.184;9.162;2022-09-12T14:56:21;24.00;99.90
11812;DHT22;5963;50.184;9.162;2022-09-12T14:58:49;24.00;99.90
11812;DHT22;5963;50.184;9.162;2022-09-12T15:01:23;24.30;99.90
11812;DHT22;5963;50.184;9.162;2022-09-12T15:03:54;24.10;99.90
11812;DHT22;5963;50.184;9.162;2022-09-12T15:06:27;24.00;99.90
11812;DHT22;5963;50.184;9.162;2022-09-12T15:08:57;23.90;99.90
11812;DHT22;5963;50.184;9.162;2022-09-12T15:11:27;23.90;99.90
11812;DHT22;5963;50.184;9.162;2022-09-12T15:13:55;23.80;99.90
11812;DHT22;5963;50.184;9.162;2022-09-12T15:16:23;23.90;99.90
11812;DHT22;5963;50.184;9.162;2022-09-12T15:18:51;23.50;99.90
11812;DHT22;5963;50.184;9.162;2022-09-12T15:21:19;23.40;99.90
11812;DHT22;5963;50.184;9.162;2022-09-12T15:23:50;23.50;99.90
11812;DHT22;5963;50.184;9.162;2022-09-12T15:26:21;23.60;99.90
11812;DHT22;5963;50.184;9.162;2022-09-12T15:28:50;23.70;99.90
11812;DHT22;5963;50.184;9.162;2022-09-12T15:31:23;23.60;99.90
11812;DHT22;5963;50.184;9.162;2022-09-12T15:33:52;23.50;99.90
11812;DHT22;5963;50.184;9.162;2022-09-12T15:36:23;23.40;99.90
11812;DHT22;5963;50.184;9.162;2022-09-12T15:38:53;23.40;99.90
11812;DHT22;5963;50.184;9.162;2022-09-12T15:41:24;23.30;99.90
11812;DHT22;5963;50.184;9.162;2022-09-12T15:43:53;23.20;99.90
11812;DHT22;5963;50.184;9.162;2022-09-12T15:46:22;23.10;99.90
11812;DHT22;5963;50.184;9.162;2022-09-12T15:48:50;23.10;99.90
11812;DHT22;5963;50.184;9.162;2022-09-12T15:51:20;23.20;99.90
11812;DHT22;5963;50.184;9.162;2022-09-12T15:53:49;23.20;99.90
11812;DHT22;5963;50.184;9.162;2022-09-12T15:56:21;23.20;99.90
11812;DHT22;5963;50.184;9.162;2022-09-12T15:58:50;23.20;99.90
11812;DHT22;5963;50.184;9.162;2022-09-12T16:01:27;23.30;99.90
11812;DHT22;5963;50.184;9.162;2022-09-12T16:03:55;23.10;99.90
11812;DHT22;5963;50.184;9.162;2022-09-12T16:06:24;23.10;99.90
11812;DHT22;5963;50.184;9.162;2022-09-12T16:08:52;23.00;99.90
11812;DHT22;5963;50.184;9.162;2022-09-12T16:11:25;22.80;99.90
11812;DHT22;5963;50.184;9.162;2022-09-12T16:13:55;22.60;99.90
11812;DHT22;5963;50.184;9.162;2022-09-12T16:16:24;22.70;99.90
11812;DHT22;5963;50.184;9.162;2022-09-12T16:18:52;22.80;99.90
11812;DHT22;5963;50.184;9.162;2022-09-12T16:21:21;22.80;99.90
11812;DHT22;5963;50.184;9.162;2022-09-12T16:23:50;22.70;99.90
11812;DHT22;5963;50.184;9.162;2022-09-12T16:26:22;22.50;99.90
11812;DHT22;5963;50.184;9.162;2022-09-12T16:28:53;22.20;99.90
11812;DHT22;5963;50.184;9.162;2022-09-12T16:31:22;22.20;99.90
11812;DHT22;5963;50.184;9.162;2022-09-12T16:33:52;22.10;99.90
11812;DHT22;5963;50.184;9.162;2022-09-12T16:36:21;21.80;99.90
11812;DHT22;5963;50.184;9.162;2022-09-12T16:38:53;21.80;99.90
11812;DHT22;5963;50.184;9.162;2022-09-12T16:41:24;21.40;99.90